sensor_id;sensor_type;location;lat;lon;timestamp;temperature;humidity
72320;SHT30;60269;52.502;16.732;2023-05-16T00:03:30;9.78;99.85
72320;SHT30;60269;52.502;16.732;2023-05-16T00:07:02;9.76;99.88
72320;SHT30;60269;52.502;16.732;2023-05-16T00:10:34;9.71;99.96
72320;SHT30;60269;52.502;16.732;2023-05-16T00:14:06;9.83;99.76
72320;SHT30;60269;52.502;16.732;2023-05-16T00:17:38;9.79;99.49
72320;SHT30;60269;52.502;16.732;2023-05-16T00:21:11;9.74;99.38
72320;SHT30;60269;52.502;16.732;2023-05-16T00:24:43;9.75;99.52
72320;SHT30;60269;52.502;16.732;2023-05-16T00:28:15;9.75;99.51
72320;SHT30;60269;52.502;16.732;2023-05-16T00:31:47;9.68;99.47
72320;SHT30;60269;52.502;16.732;2023-05-16T00:35:19;9.69;99.60
72320;SHT30;60269;52.502;16.732;2023-05-16T00:38:51;9.65;99.53
72320;SHT30;60269;52.502;16.732;2023-05-16T00:42:24;9.62;99.65
72320;SHT30;60269;52.502;16.732;2023-05-16T00:45:55;9.79;99.65
72320;SHT30;60269;52.502;16.732;2023-05-16T00:49:29;9.83;99.64
72320;SHT30;60269;52.502;16.732;2023-05-16T00:53:00;9.97;99.54
72320;SHT30;60269;52.502;16.732;2023-05-16T00:56:33;10.03;99.42
72320;SHT30;60269;52.502;16.732;2023-05-16T01:00:06;10.12;99.25
72320;SHT30;60269;52.502;16.732;2023-05-16T01:03:41;10.17;99.06
72320;SHT30;60269;52.502;16.732;2023-05-16T01:07:17;10.18;99.06
72320;SHT30;60269;52.502;16.732;2023-05-16T01:10:59;10.23;98.85
72320;SHT30;60269;52.502;16.732;2023-05-16T01:14:45;10.29;98.48
72320;SHT30;60269;52.502;16.732;2023-05-16T01:18:30;10.30;98.33
72320;SHT30;60269;52.502;16.732;2023-05-16T01:22:10;10.36;98.05
72320;SHT30;60269;52.502;16.732;2023-05-16T01:26:19;10.38;98.03
72320;SHT30;60269;52.502;16.732;2023-05-16T01:29:56;10.38;97.78
72320;SHT30;60269;52.502;16.732;2023-05-16T01:33:28;10.44;97.66
72320;SHT30;60269;52.502;16.732;2023-05-16T01:37:11;10.41;97.72
72320;SHT30;60269;52.502;16.732;2023-05-16T01:44:42;10.37;97.50
72320;SHT30;60269;52.502;16.732;2023-05-16T01:48:20;10.38;97.62
72320;SHT30;60269;52.502;16.732;2023-05-16T01:52:22;10.34;97.69
72320;SHT30;60269;52.502;16.732;2023-05-16T01:55:59;10.34;97.71
72320;SHT30;60269;52.502;16.732;2023-05-16T01:59:32;10.38;97.82
72320;SHT30;60269;52.502;16.732;2023-05-16T02:03:05;10.34;97.71
72320;SHT30;60269;52.502;16.732;2023-05-16T02:06:37;10.37;97.58
72320;SHT30;60269;52.502;16.732;2023-05-16T02:10:10;10.38;97.53
72320;SHT30;60269;52.502;16.732;2023-05-16T02:13:42;10.38;97.49
72320;SHT30;60269;52.502;16.732;2023-05-16T02:17:14;10.38;97.60
72320;SHT30;60269;52.502;16.732;2023-05-16T02:20:46;10.30;97.61
72320;SHT30;60269;52.502;16.732;2023-05-16T02:24:18;10.25;97.55
72320;SHT30;60269;52.502;16.732;2023-05-16T02:27:50;10.20;97.63
72320;SHT30;60269;52.502;16.732;2023-05-16T02:31:29;10.17;97.46
72320;SHT30;60269;52.502;16.732;2023-05-16T02:35:02;10.18;97.51
72320;SHT30;60269;52.502;16.732;2023-05-16T02:38:34;10.16;97.52
72320;SHT30;60269;52.502;16.732;2023-05-16T02:42:08;10.14;97.63
72320;SHT30;60269;52.502;16.732;2023-05-16T02:45:39;10.16;97.29
72320;SHT30;60269;52.502;16.732;2023-05-16T02:49:12;10.24;97.10
72320;SHT30;60269;52.502;16.732;2023-05-16T02:52:43;10.21;96.94
72320;SHT30;60269;52.502;16.732;2023-05-16T02:56:15;10.24;97.04
72320;SHT30;60269;52.502;16.732;2023-05-16T02:59:47;10.24;97.03
72320;SHT30;60269;52.502;16.732;2023-05-16T03:03:19;10.24;96.97
72320;SHT30;60269;52.502;16.732;2023-05-16T03:06:51;10.27;96.64
72320;SHT30;60269;52.502;16.732;2023-05-16T03:10:23;10.30;96.65
72320;SHT30;60269;52.502;16.732;2023-05-16T03:13:55;10.29;96.34
72320;SHT30;60269;52.502;16.732;2023-05-16T03:17:27;10.32;96.21
72320;SHT30;60269;52.502;16.732;2023-05-16T03:20:59;10.33;95.55
72320;SHT30;60269;52.502;16.732;2023-05-16T03:24:32;10.38;95.59
72320;SHT30;60269;52.502;16.732;2023-05-16T03:28:05;10.37;95.24
72320;SHT30;60269;52.502;16.732;2023-05-16T03:31:40;10.13;95.77
72320;SHT30;60269;52.502;16.732;2023-05-16T03:35:13;9.87;96.72
72320;SHT30;60269;52.502;16.732;2023-05-16T03:38:51;9.82;97.16
72320;SHT30;60269;52.502;16.732;2023-05-16T03:42:28;9.87;97.04
72320;SHT30;60269;52.502;16.732;2023-05-16T03:46:00;9.79;97.14
72320;SHT30;60269;52.502;16.732;2023-05-16T03:49:33;9.78;97.43
72320;SHT30;60269;52.502;16.732;2023-05-16T03:53:05;9.69;97.57
72320;SHT30;60269;52.502;16.732;2023-05-16T03:56:37;9.66;97.80
72320;SHT30;60269;52.502;16.732;2023-05-16T04:00:09;9.68;97.85
72320;SHT30;60269;52.502;16.732;2023-05-16T04:03:43;9.72;97.88
72320;SHT30;60269;52.502;16.732;2023-05-16T04:07:15;9.72;97.91
72320;SHT30;60269;52.502;16.732;2023-05-16T04:10:47;9.71;97.84
72320;SHT30;60269;52.502;16.732;2023-05-16T04:14:19;9.78;97.82
72320;SHT30;60269;52.502;16.732;2023-05-16T04:17:51;9.82;97.64
72320;SHT30;60269;52.502;16.732;2023-05-16T04:21:23;9.86;97.66
72320;SHT30;60269;52.502;16.732;2023-05-16T04:24:55;9.87;97.54
72320;SHT30;60269;52.502;16.732;2023-05-16T04:28:27;9.95;97.51
72320;SHT30;60269;52.502;16.732;2023-05-16T04:31:59;10.18;97.02
72320;SHT30;60269;52.502;16.732;2023-05-16T04:35:31;10.43;96.43
72320;SHT30;60269;52.502;16.732;2023-05-16T04:39:04;10.64;95.60
72320;SHT30;60269;52.502;16.732;2023-05-16T04:42:36;10.79;95.03
72320;SHT30;60269;52.502;16.732;2023-05-16T04:46:08;10.91;94.49
72320;SHT30;60269;52.502;16.732;2023-05-16T04:49:40;11.02;94.16
72320;SHT30;60269;52.502;16.732;2023-05-16T04:53:12;11.22;93.53
72320;SHT30;60269;52.502;16.732;2023-05-16T04:56:45;11.19;92.43
72320;SHT30;60269;52.502;16.732;2023-05-16T05:00:17;10.91;93.58
72320;SHT30;60269;52.502;16.732;2023-05-16T05:03:49;11.19;93.09
72320;SHT30;60269;52.502;16.732;2023-05-16T05:07:21;11.54;91.94
72320;SHT30;60269;52.502;16.732;2023-05-16T05:10:57;12.29;89.62
72320;SHT30;60269;52.502;16.732;2023-05-16T05:14:29;12.53;87.63
72320;SHT30;60269;52.502;16.732;2023-05-16T05:18:02;12.94;86.68
72320;SHT30;60269;52.502;16.732;2023-05-16T05:21:37;13.22;85.00
72320;SHT30;60269;52.502;16.732;2023-05-16T05:25:09;13.18;84.97
72320;SHT30;60269;52.502;16.732;2023-05-16T05:28:42;13.22;84.59
72320;SHT30;60269;52.502;16.732;2023-05-16T05:32:25;13.36;84.11
72320;SHT30;60269;52.502;16.732;2023-05-16T05:35:57;13.61;83.15
72320;SHT30;60269;52.502;16.732;2023-05-16T05:39:29;13.76;82.88
72320;SHT30;60269;52.502;16.732;2023-05-16T05:43:01;13.72;83.92
72320;SHT30;60269;52.502;16.732;2023-05-16T05:46:33;13.28;84.68
72320;SHT30;60269;52.502;16.732;2023-05-16T05:50:06;13.18;85.27
72320;SHT30;60269;52.502;16.732;2023-05-16T05:53:39;13.73;83.61
72320;SHT30;60269;52.502;16.732;2023-05-16T05:57:12;13.49;83.72
72320;SHT30;60269;52.502;16.732;2023-05-16T06:00:46;13.24;85.31
72320;SHT30;60269;52.502;16.732;2023-05-16T06:04:19;12.86;86.30
72320;SHT30;60269;52.502;16.732;2023-05-16T06:07:51;12.94;84.89
72320;SHT30;60269;52.502;16.732;2023-05-16T06:11:23;13.61;83.74
72320;SHT30;60269;52.502;16.732;2023-05-16T06:14:56;13.24;85.30
72320;SHT30;60269;52.502;16.732;2023-05-16T06:18:28;13.65;83.44
72320;SHT30;60269;52.502;16.732;2023-05-16T06:22:00;13.49;83.44
72320;SHT30;60269;52.502;16.732;2023-05-16T06:25:32;13.26;84.77
72320;SHT30;60269;52.502;16.732;2023-05-16T06:29:04;13.90;83.05
72320;SHT30;60269;52.502;16.732;2023-05-16T06:32:36;14.01;82.36
72320;SHT30;60269;52.502;16.732;2023-05-16T06:36:08;13.87;82.60
72320;SHT30;60269;52.502;16.732;2023-05-16T06:39:40;13.36;84.16
72320;SHT30;60269;52.502;16.732;2023-05-16T06:43:12;13.38;84.79
72320;SHT30;60269;52.502;16.732;2023-05-16T06:46:44;13.32;84.34
72320;SHT30;60269;52.502;16.732;2023-05-16T06:50:16;13.51;84.10
72320;SHT30;60269;52.502;16.732;2023-05-16T06:53:49;13.63;84.51
72320;SHT30;60269;52.502;16.732;2023-05-16T06:57:21;14.46;81.24
72320;SHT30;60269;52.502;16.732;2023-05-16T07:00:53;14.57;80.64
72320;SHT30;60269;52.502;16.732;2023-05-16T07:04:25;14.59;78.89
72320;SHT30;60269;52.502;16.732;2023-05-16T07:07:57;15.13;78.71
72320;SHT30;60269;52.502;16.732;2023-05-16T07:11:29;15.28;77.50
72320;SHT30;60269;52.502;16.732;2023-05-16T07:15:02;15.19;77.24
72320;SHT30;60269;52.502;16.732;2023-05-16T07:18:34;15.46;77.89
72320;SHT30;60269;52.502;16.732;2023-05-16T07:22:06;15.02;78.50
72320;SHT30;60269;52.502;16.732;2023-05-16T07:25:38;14.88;79.26
72320;SHT30;60269;52.502;16.732;2023-05-16T07:29:10;15.88;75.94
72320;SHT30;60269;52.502;16.732;2023-05-16T07:32:43;16.13;74.08
72320;SHT30;60269;52.502;16.732;2023-05-16T07:36:15;16.59;72.84
72320;SHT30;60269;52.502;16.732;2023-05-16T07:39:48;16.59;73.09
72320;SHT30;60269;52.502;16.732;2023-05-16T07:43:20;16.37;73.26
72320;SHT30;60269;52.502;16.732;2023-05-16T07:46:52;16.50;73.34
72320;SHT30;60269;52.502;16.732;2023-05-16T07:50:25;16.22;74.30
72320;SHT30;60269;52.502;16.732;2023-05-16T07:53:57;16.50;73.03
72320;SHT30;60269;52.502;16.732;2023-05-16T07:57:29;16.96;71.83
72320;SHT30;60269;52.502;16.732;2023-05-16T08:01:01;17.10;71.00
72320;SHT30;60269;52.502;16.732;2023-05-16T08:04:33;16.61;71.31
72320;SHT30;60269;52.502;16.732;2023-05-16T08:08:05;17.00;70.92
72320;SHT30;60269;52.502;16.732;2023-05-16T08:11:38;18.11;67.59
72320;SHT30;60269;52.502;16.732;2023-05-16T08:15:10;17.89;68.44
72320;SHT30;60269;52.502;16.732;2023-05-16T08:18:43;18.37;66.59
72320;SHT30;60269;52.502;16.732;2023-05-16T08:22:15;18.25;66.13
72320;SHT30;60269;52.502;16.732;2023-05-16T08:25:47;18.51;66.73
72320;SHT30;60269;52.502;16.732;2023-05-16T08:29:19;18.02;66.26
72320;SHT30;60269;52.502;16.732;2023-05-16T08:32:51;18.45;65.11
72320;SHT30;60269;52.502;16.732;2023-05-16T08:36:23;18.65;66.52
72320;SHT30;60269;52.502;16.732;2023-05-16T08:39:57;18.44;66.21
72320;SHT30;60269;52.502;16.732;2023-05-16T08:43:32;18.75;65.38
72320;SHT30;60269;52.502;16.732;2023-05-16T08:47:13;18.58;63.77
72320;SHT30;60269;52.502;16.732;2023-05-16T08:50:48;18.96;63.98
72320;SHT30;60269;52.502;16.732;2023-05-16T08:54:21;17.97;65.53
72320;SHT30;60269;52.502;16.732;2023-05-16T08:57:53;18.42;63.99
72320;SHT30;60269;52.502;16.732;2023-05-16T09:01:25;19.17;64.06
72320;SHT30;60269;52.502;16.732;2023-05-16T09:04:58;19.30;63.51
72320;SHT30;60269;52.502;16.732;2023-05-16T09:08:31;19.25;61.36
72320;SHT30;60269;52.502;16.732;2023-05-16T09:12:03;18.76;64.34
72320;SHT30;60269;52.502;16.732;2023-05-16T09:15:35;18.93;61.46
72320;SHT30;60269;52.502;16.732;2023-05-16T09:19:11;19.57;59.29
72320;SHT30;60269;52.502;16.732;2023-05-16T09:22:58;19.62;57.13
72320;SHT30;60269;52.502;16.732;2023-05-16T09:26:34;20.00;56.18
72320;SHT30;60269;52.502;16.732;2023-05-16T09:30:07;20.22;55.54
72320;SHT30;60269;52.502;16.732;2023-05-16T09:33:41;20.79;54.56
72320;SHT30;60269;52.502;16.732;2023-05-16T09:37:13;20.19;57.59
72320;SHT30;60269;52.502;16.732;2023-05-16T09:40:45;19.35;61.87
72320;SHT30;60269;52.502;16.732;2023-05-16T09:44:18;18.49;63.94
72320;SHT30;60269;52.502;16.732;2023-05-16T09:47:50;18.04;64.77
72320;SHT30;60269;52.502;16.732;2023-05-16T09:51:22;19.14;62.22
72320;SHT30;60269;52.502;16.732;2023-05-16T09:54:54;18.93;63.53
72320;SHT30;60269;52.502;16.732;2023-05-16T09:58:30;19.07;64.23
72320;SHT30;60269;52.502;16.732;2023-05-16T10:02:04;19.99;61.28
72320;SHT30;60269;52.502;16.732;2023-05-16T10:05:37;20.08;59.27
72320;SHT30;60269;52.502;16.732;2023-05-16T10:09:13;19.47;62.19
72320;SHT30;60269;52.502;16.732;2023-05-16T10:12:47;19.06;61.89
72320;SHT30;60269;52.502;16.732;2023-05-16T10:16:20;19.59;62.27
72320;SHT30;60269;52.502;16.732;2023-05-16T10:19:54;20.10;60.94
72320;SHT30;60269;52.502;16.732;2023-05-16T10:23:26;19.24;61.52
72320;SHT30;60269;52.502;16.732;2023-05-16T10:26:59;18.11;64.04
72320;SHT30;60269;52.502;16.732;2023-05-16T10:30:35;18.22;63.57
72320;SHT30;60269;52.502;16.732;2023-05-16T10:34:08;18.34;61.36
72320;SHT30;60269;52.502;16.732;2023-05-16T10:37:41;18.87;61.68
72320;SHT30;60269;52.502;16.732;2023-05-16T10:41:14;19.23;60.20
72320;SHT30;60269;52.502;16.732;2023-05-16T10:44:46;18.89;60.45
72320;SHT30;60269;52.502;16.732;2023-05-16T10:48:37;19.54;59.62
72320;SHT30;60269;52.502;16.732;2023-05-16T10:52:11;19.59;60.08
72320;SHT30;60269;52.502;16.732;2023-05-16T10:56:05;18.27;61.68
72320;SHT30;60269;52.502;16.732;2023-05-16T10:59:45;19.10;60.23
72320;SHT30;60269;52.502;16.732;2023-05-16T11:03:22;17.86;62.30
72320;SHT30;60269;52.502;16.732;2023-05-16T11:07:00;17.73;62.58
72320;SHT30;60269;52.502;16.732;2023-05-16T11:10:32;18.39;60.03
72320;SHT30;60269;52.502;16.732;2023-05-16T11:14:04;18.75;58.32
72320;SHT30;60269;52.502;16.732;2023-05-16T11:17:41;19.62;55.14
72320;SHT30;60269;52.502;16.732;2023-05-16T11:21:17;20.58;54.24
72320;SHT30;60269;52.502;16.732;2023-05-16T11:25:10;19.52;55.97
72320;SHT30;60269;52.502;16.732;2023-05-16T11:28:56;20.61;54.62
72320;SHT30;60269;52.502;16.732;2023-05-16T11:32:32;20.26;56.09
72320;SHT30;60269;52.502;16.732;2023-05-16T11:36:06;19.85;56.55
72320;SHT30;60269;52.502;16.732;2023-05-16T11:39:47;18.83;59.03
72320;SHT30;60269;52.502;16.732;2023-05-16T11:43:20;19.11;59.65
72320;SHT30;60269;52.502;16.732;2023-05-16T11:46:52;18.65;59.35
72320;SHT30;60269;52.502;16.732;2023-05-16T11:50:24;18.83;61.30
72320;SHT30;60269;52.502;16.732;2023-05-16T11:53:56;19.24;59.63
72320;SHT30;60269;52.502;16.732;2023-05-16T11:57:28;18.28;62.03
72320;SHT30;60269;52.502;16.732;2023-05-16T12:01:03;17.81;63.77
72320;SHT30;60269;52.502;16.732;2023-05-16T12:04:35;17.42;64.89
72320;SHT30;60269;52.502;16.732;2023-05-16T12:08:09;17.02;65.60
72320;SHT30;60269;52.502;16.732;2023-05-16T12:11:42;17.49;64.88
72320;SHT30;60269;52.502;16.732;2023-05-16T12:15:16;17.50;64.76
72320;SHT30;60269;52.502;16.732;2023-05-16T12:18:49;17.69;64.36
72320;SHT30;60269;52.502;16.732;2023-05-16T12:22:24;17.28;65.61
72320;SHT30;60269;52.502;16.732;2023-05-16T12:25:56;17.23;65.76
72320;SHT30;60269;52.502;16.732;2023-05-16T12:29:30;17.33;65.91
72320;SHT30;60269;52.502;16.732;2023-05-16T12:33:12;17.50;66.09
72320;SHT30;60269;52.502;16.732;2023-05-16T12:36:50;18.05;64.50
72320;SHT30;60269;52.502;16.732;2023-05-16T12:40:22;18.12;63.41
72320;SHT30;60269;52.502;16.732;2023-05-16T12:44:06;17.53;64.00
72320;SHT30;60269;52.502;16.732;2023-05-16T12:47:38;17.38;65.15
72320;SHT30;60269;52.502;16.732;2023-05-16T12:51:17;16.91;65.82
72320;SHT30;60269;52.502;16.732;2023-05-16T12:54:50;16.75;68.15
72320;SHT30;60269;52.502;16.732;2023-05-16T12:58:22;16.73;69.49
72320;SHT30;60269;52.502;16.732;2023-05-16T13:01:54;16.15;70.75
72320;SHT30;60269;52.502;16.732;2023-05-16T13:05:26;15.72;73.36
72320;SHT30;60269;52.502;16.732;2023-05-16T13:08:58;15.30;75.78
72320;SHT30;60269;52.502;16.732;2023-05-16T13:12:30;15.02;77.15
72320;SHT30;60269;52.502;16.732;2023-05-16T13:16:02;14.90;77.92
72320;SHT30;60269;52.502;16.732;2023-05-16T13:19:35;14.93;78.63
72320;SHT30;60269;52.502;16.732;2023-05-16T13:23:08;14.95;78.37
72320;SHT30;60269;52.502;16.732;2023-05-16T13:26:40;15.07;77.88
72320;SHT30;60269;52.502;16.732;2023-05-16T13:30:14;14.93;78.39
72320;SHT30;60269;52.502;16.732;2023-05-16T13:33:47;14.89;78.61
72320;SHT30;60269;52.502;16.732;2023-05-16T13:37:19;14.93;77.83
72320;SHT30;60269;52.502;16.732;2023-05-16T13:40:52;14.85;78.24
72320;SHT30;60269;52.502;16.732;2023-05-16T13:44:23;14.92;77.35
72320;SHT30;60269;52.502;16.732;2023-05-16T13:47:57;14.86;77.47
72320;SHT30;60269;52.502;16.732;2023-05-16T13:51:29;14.55;79.01
72320;SHT30;60269;52.502;16.732;2023-05-16T13:55:02;14.46;79.15
72320;SHT30;60269;52.502;16.732;2023-05-16T13:58:34;14.34;79.87
72320;SHT30;60269;52.502;16.732;2023-05-16T14:02:16;14.48;79.86
72320;SHT30;60269;52.502;16.732;2023-05-16T14:05:48;14.31;79.62
72320;SHT30;60269;52.502;16.732;2023-05-16T14:09:20;14.27;80.38
72320;SHT30;60269;52.502;16.732;2023-05-16T14:12:52;14.52;79.18
72320;SHT30;60269;52.502;16.732;2023-05-16T14:16:24;14.61;78.74
72320;SHT30;60269;52.502;16.732;2023-05-16T14:19:57;14.89;77.81
72320;SHT30;60269;52.502;16.732;2023-05-16T14:23:29;15.07;76.65
72320;SHT30;60269;52.502;16.732;2023-05-16T14:27:02;15.30;75.78
72320;SHT30;60269;52.502;16.732;2023-05-16T14:30:34;15.46;75.42
72320;SHT30;60269;52.502;16.732;2023-05-16T14:34:07;15.53;74.85
72320;SHT30;60269;52.502;16.732;2023-05-16T14:37:39;15.43;74.44
72320;SHT30;60269;52.502;16.732;2023-05-16T14:41:11;15.26;75.60
72320;SHT30;60269;52.502;16.732;2023-05-16T14:44:44;15.13;76.09
72320;SHT30;60269;52.502;16.732;2023-05-16T14:48:15;14.68;77.89
72320;SHT30;60269;52.502;16.732;2023-05-16T14:51:48;14.25;80.00
72320;SHT30;60269;52.502;16.732;2023-05-16T14:55:21;13.96;81.55
72320;SHT30;60269;52.502;16.732;2023-05-16T14:58:53;13.84;81.81
72320;SHT30;60269;52.502;16.732;2023-05-16T15:02:25;13.66;82.63
72320;SHT30;60269;52.502;16.732;2023-05-16T15:06:00;13.77;81.40
72320;SHT30;60269;52.502;16.732;2023-05-16T15:09:32;13.80;81.09
72320;SHT30;60269;52.502;16.732;2023-05-16T15:13:04;13.77;80.86
72320;SHT30;60269;52.502;16.732;2023-05-16T15:16:36;13.90;80.11
72320;SHT30;60269;52.502;16.732;2023-05-16T15:20:10;14.06;79.60
72320;SHT30;60269;52.502;16.732;2023-05-16T15:23:42;14.14;80.36
72320;SHT30;60269;52.502;16.732;2023-05-16T15:27:14;14.10;79.49
72320;SHT30;60269;52.502;16.732;2023-05-16T15:30:46;14.16;79.53
72320;SHT30;60269;52.502;16.732;2023-05-16T15:34:21;14.18;79.86
72320;SHT30;60269;52.502;16.732;2023-05-16T15:38:02;13.96;80.03
72320;SHT30;60269;52.502;16.732;2023-05-16T15:41:34;14.00;80.58
72320;SHT30;60269;52.502;16.732;2023-05-16T15:45:26;13.69;80.45
72320;SHT30;60269;52.502;16.732;2023-05-16T15:48:59;13.28;81.67
72320;SHT30;60269;52.502;16.732;2023-05-16T15:52:31;13.04;82.36
72320;SHT30;60269;52.502;16.732;2023-05-16T15:56:04;12.84;83.37
72320;SHT30;60269;52.502;16.732;2023-05-16T15:59:36;12.67;84.32
72320;SHT30;60269;52.502;16.732;2023-05-16T16:03:08;12.63;84.40
72320;SHT30;60269;52.502;16.732;2023-05-16T16:06:40;12.53;84.94
72320;SHT30;60269;52.502;16.732;2023-05-16T16:10:13;12.53;85.19
72320;SHT30;60269;52.502;16.732;2023-05-16T16:13:45;12.42;85.94
72320;SHT30;60269;52.502;16.732;2023-05-16T16:17:17;12.25;86.54
72320;SHT30;60269;52.502;16.732;2023-05-16T16:20:49;12.04;87.66
72320;SHT30;60269;52.502;16.732;2023-05-16T16:24:21;11.95;87.68
72320;SHT30;60269;52.502;16.732;2023-05-16T16:27:53;11.73;88.80
72320;SHT30;60269;52.502;16.732;2023-05-16T16:31:25;11.54;89.47
72320;SHT30;60269;52.502;16.732;2023-05-16T16:35:00;11.47;89.78
72320;SHT30;60269;52.502;16.732;2023-05-16T16:38:37;11.40;88.89
72320;SHT30;60269;52.502;16.732;2023-05-16T16:42:09;11.59;88.55
72320;SHT30;60269;52.502;16.732;2023-05-16T16:45:42;11.67;87.67
72320;SHT30;60269;52.502;16.732;2023-05-16T16:49:14;11.82;87.05
72320;SHT30;60269;52.502;16.732;2023-05-16T16:52:46;11.80;86.47
72320;SHT30;60269;52.502;16.732;2023-05-16T16:56:18;11.85;86.36
72320;SHT30;60269;52.502;16.732;2023-05-16T16:59:51;11.87;85.56
72320;SHT30;60269;52.502;16.732;2023-05-16T17:03:23;11.80;84.86
72320;SHT30;60269;52.502;16.732;2023-05-16T17:06:55;11.80;84.87
72320;SHT30;60269;52.502;16.732;2023-05-16T17:10:31;11.74;84.30
72320;SHT30;60269;52.502;16.732;2023-05-16T17:14:03;11.66;84.35
72320;SHT30;60269;52.502;16.732;2023-05-16T17:17:37;11.66;84.24
72320;SHT30;60269;52.502;16.732;2023-05-16T17:21:09;11.64;84.07
72320;SHT30;60269;52.502;16.732;2023-05-16T17:24:44;11.57;84.12
72320;SHT30;60269;52.502;16.732;2023-05-16T17:28:18;11.57;84.02
72320;SHT30;60269;52.502;16.732;2023-05-16T17:31:50;11.57;83.90
72320;SHT30;60269;52.502;16.732;2023-05-16T17:35:22;11.57;82.63
72320;SHT30;60269;52.502;16.732;2023-05-16T17:38:54;11.56;82.79
72320;SHT30;60269;52.502;16.732;2023-05-16T17:42:27;11.47;82.89
72320;SHT30;60269;52.502;16.732;2023-05-16T17:45:59;11.49;83.05
72320;SHT30;60269;52.502;16.732;2023-05-16T17:49:32;11.54;82.66
72320;SHT30;60269;52.502;16.732;2023-05-16T17:53:04;11.46;82.88
72320;SHT30;60269;52.502;16.732;2023-05-16T17:56:38;11.49;82.30
72320;SHT30;60269;52.502;16.732;2023-05-16T18:00:10;11.44;82.28
72320;SHT30;60269;52.502;16.732;2023-05-16T18:03:45;11.46;82.35
72320;SHT30;60269;52.502;16.732;2023-05-16T18:07:18;11.43;82.84
72320;SHT30;60269;52.502;16.732;2023-05-16T18:10:50;11.39;82.70
72320;SHT30;60269;52.502;16.732;2023-05-16T18:14:23;11.36;82.76
72320;SHT30;60269;52.502;16.732;2023-05-16T18:17:56;11.36;82.95
72320;SHT30;60269;52.502;16.732;2023-05-16T18:21:28;11.32;83.11
72320;SHT30;60269;52.502;16.732;2023-05-16T18:25:00;11.33;83.30
72320;SHT30;60269;52.502;16.732;2023-05-16T18:28:34;11.32;83.43
72320;SHT30;60269;52.502;16.732;2023-05-16T18:32:06;11.24;83.54
72320;SHT30;60269;52.502;16.732;2023-05-16T18:35:39;11.32;83.62
72320;SHT30;60269;52.502;16.732;2023-05-16T18:39:11;11.29;83.74
72320;SHT30;60269;52.502;16.732;2023-05-16T18:42:43;11.23;83.75
72320;SHT30;60269;52.502;16.732;2023-05-16T18:46:15;11.19;83.87
72320;SHT30;60269;52.502;16.732;2023-05-16T18:49:47;11.26;83.70
72320;SHT30;60269;52.502;16.732;2023-05-16T18:53:19;11.22;83.77
72320;SHT30;60269;52.502;16.732;2023-05-16T18:56:51;11.05;84.38
72320;SHT30;60269;52.502;16.732;2023-05-16T19:00:24;10.99;84.37
72320;SHT30;60269;52.502;16.732;2023-05-16T19:03:55;10.82;85.19
72320;SHT30;60269;52.502;16.732;2023-05-16T19:07:28;10.75;85.60
72320;SHT30;60269;52.502;16.732;2023-05-16T19:11:00;10.74;85.67
72320;SHT30;60269;52.502;16.732;2023-05-16T19:14:32;10.61;86.22
72320;SHT30;60269;52.502;16.732;2023-05-16T19:18:04;10.61;86.40
72320;SHT30;60269;52.502;16.732;2023-05-16T19:21:37;10.41;87.99
72320;SHT30;60269;52.502;16.732;2023-05-16T19:25:09;10.44;87.97
72320;SHT30;60269;52.502;16.732;2023-05-16T19:28:41;10.41;88.26
72320;SHT30;60269;52.502;16.732;2023-05-16T19:32:13;10.43;88.30
72320;SHT30;60269;52.502;16.732;2023-05-16T19:35:45;10.43;88.24
72320;SHT30;60269;52.502;16.732;2023-05-16T19:39:18;10.34;88.73
72320;SHT30;60269;52.502;16.732;2023-05-16T19:42:50;10.32;89.03
72320;SHT30;60269;52.502;16.732;2023-05-16T19:46:22;10.30;89.19
72320;SHT30;60269;52.502;16.732;2023-05-16T19:49:55;10.23;89.49
72320;SHT30;60269;52.502;16.732;2023-05-16T19:53:27;10.23;89.42
72320;SHT30;60269;52.502;16.732;2023-05-16T19:56:59;10.25;89.40
72320;SHT30;60269;52.502;16.732;2023-05-16T20:00:31;10.18;89.79
72320;SHT30;60269;52.502;16.732;2023-05-16T20:04:03;10.17;90.09
72320;SHT30;60269;52.502;16.732;2023-05-16T20:07:36;10.16;90.41
72320;SHT30;60269;52.502;16.732;2023-05-16T20:11:10;10.17;90.69
72320;SHT30;60269;52.502;16.732;2023-05-16T20:14:43;10.17;90.83
72320;SHT30;60269;52.502;16.732;2023-05-16T20:18:16;10.10;91.44
72320;SHT30;60269;52.502;16.732;2023-05-16T20:21:48;10.13;91.66
72320;SHT30;60269;52.502;16.732;2023-05-16T20:25:20;10.09;91.88
72320;SHT30;60269;52.502;16.732;2023-05-16T20:28:51;10.05;92.05
72320;SHT30;60269;52.502;16.732;2023-05-16T20:32:25;9.97;92.48
72320;SHT30;60269;52.502;16.732;2023-05-16T20:35:57;10.00;92.46
72320;SHT30;60269;52.502;16.732;2023-05-16T20:39:30;9.97;92.54
72320;SHT30;60269;52.502;16.732;2023-05-16T20:43:03;9.96;92.78
72320;SHT30;60269;52.502;16.732;2023-05-16T20:46:35;9.99;92.74
72320;SHT30;60269;52.502;16.732;2023-05-16T20:50:08;9.99;92.54
72320;SHT30;60269;52.502;16.732;2023-05-16T20:53:40;9.99;92.39
72320;SHT30;60269;52.502;16.732;2023-05-16T20:57:11;9.92;92.75
72320;SHT30;60269;52.502;16.732;2023-05-16T21:00:43;9.90;92.84
72320;SHT30;60269;52.502;16.732;2023-05-16T21:04:16;9.87;93.23
72320;SHT30;60269;52.502;16.732;2023-05-16T21:07:48;9.85;93.21
72320;SHT30;60269;52.502;16.732;2023-05-16T21:11:19;9.76;93.64
72320;SHT30;60269;52.502;16.732;2023-05-16T21:14:52;9.69;93.88
72320;SHT30;60269;52.502;16.732;2023-05-16T21:18:24;9.68;94.04
72320;SHT30;60269;52.502;16.732;2023-05-16T21:21:57;9.63;94.12
72320;SHT30;60269;52.502;16.732;2023-05-16T21:25:29;9.61;94.22
72320;SHT30;60269;52.502;16.732;2023-05-16T21:29:01;9.54;94.35
72320;SHT30;60269;52.502;16.732;2023-05-16T21:32:33;9.52;94.56
72320;SHT30;60269;52.502;16.732;2023-05-16T21:36:06;9.45;94.77
72320;SHT30;60269;52.502;16.732;2023-05-16T21:39:38;9.37;94.90
72320;SHT30;60269;52.502;16.732;2023-05-16T21:43:10;9.34;95.32
72320;SHT30;60269;52.502;16.732;2023-05-16T21:46:43;9.32;95.06
72320;SHT30;60269;52.502;16.732;2023-05-16T21:50:15;9.34;95.20
72320;SHT30;60269;52.502;16.732;2023-05-16T21:53:49;9.35;94.92
72320;SHT30;60269;52.502;16.732;2023-05-16T21:57:21;9.34;94.88
72320;SHT30;60269;52.502;16.732;2023-05-16T22:00:53;9.28;95.00
72320;SHT30;60269;52.502;16.732;2023-05-16T22:04:24;9.24;95.03
72320;SHT30;60269;52.502;16.732;2023-05-16T22:07:58;9.24;95.13
72320;SHT30;60269;52.502;16.732;2023-05-16T22:11:30;9.26;95.27
72320;SHT30;60269;52.502;16.732;2023-05-16T22:15:02;9.27;95.18